AirNav   Advertisement
 
 353 users online  

WA54 1001 Fourth Avenue Plaza Heliport
Seattle, Washington, USA

GOING TO SEATTLE?


FAA INFORMATION EFFECTIVE 20 JULY 2017

Location

FAA Identifier: WA54
Lat/Long: 47-36-24.3530N / 122-20-01.4550W
47-36.405883N / 122-20.024250W
47.6067647 / -122.3337375
(estimated)
Elevation: 716 ft. / 218 m (estimated)
Variation: 20E (1985)
Time zone: UTC -7 (UTC -8 during Standard Time)
Zip code: 98154

Heliport Operations

Heliport use: Private use. Permission required prior to landing
Activation date: 08/1969
Control tower: no
ARTCC: SEATTLE CENTER
FSS: SEATTLE FLIGHT SERVICE STATION
Attendance: CONTINUOUS
Wind indicator: yes
Segmented circle: yes
Landing fee: yes

Heliport Communications

WX ASOS at BFI (5 nm S): PHONE 206-763-6904
WX ASOS at RNT (8 nm SE): PHONE 425-255-6080
WX ASOS at SEA (9 nm S): PHONE 206-431-2834
WX ASOS at PAE (18 nm N): PHONE 425-355-6192
WX AWOS-3PT at PWT (19 nm W): 121.2 (360-674-2811)

Nearby radio navigation aids

VOR radial/distance  VOR name  Freq  Var
SEAr336/10.3SEATTLE VORTAC116.8019E
PAEr167/18.9PAINE VOR/DME110.6020E
TCMr357/28.1MCCHORD VORTAC109.6015E

 
NDB name  Hdg/Dist  Freq  Var  ID
NOLLA109/2.736215EBF -... ..-.
PARRK331/4.628115EHPK .... .--. -.-
RENTON307/8.235317ERNT .-. -. -
GRAYE006/29.521616EGRF --. .-. ..-.
LACOMAS358/37.132816ELAC .-.. .- -.-.
MASON COUNTY036/37.434819EMNC -- -. -.-.

Heliport Services

Airframe service: NONE
Powerplant service: NONE
Bottled oxygen: NONE
Bulk oxygen: NONE

Runway Information

Helipad H1

Dimensions: 35 x 35 ft. / 11 x 11 m
Surface: concrete
ROOFTOP.
Runway edge lights: ENTR BNDRY HELI OUTLINED IN FLORESCENT LGTS WHICH ARE RAISED 8 INCHES ABOVE PAD SFC.
Traffic pattern: rightleft
Obstructions: 25 ft. ant, 60 ft. from runway, 2:1 slope to clear
LGTD RADIO ANTENNAS WEST EDGE OF BLDG.

Heliport Ownership and Management from official FAA records

Ownership: Privately-owned
Owner: 1001 FOURTH AVE ASSOCIATES
1001 4TH AVE
SEATTLE, WA 98154
Phone 206-583-5058
Manager: CAROLYN NEER
1001 4TH AVE
SEATTLE, WA 98154
Phone 206-623-6936

Additional Remarks

CTC PROPERTY MGMT ON 206-623-6936 FOR PRIOR PERMISSION.

Instrument Procedures

There are no published instrument procedures at WA54.

Some nearby airports with instrument procedures:

KBFI - Boeing Field/King County International Airport (5 nm S)
KRNT - Renton Municipal Airport (8 nm SE)
KSEA - Seattle-Tacoma International Airport (9 nm S)
S50 - Auburn Municipal Airport (17 nm S)
KPAE - Snohomish County Airport (Paine Field) (18 nm N)
KPWT - Bremerton National Airport (19 nm W)
 
Loc | Ops | Rwys | IFR | FBO | Links
Com | Nav | Svcs | Stats | Notes


 
Area around WA54 (1001 Fourth Avenue Plaza Heliport)
 
Road maps at: MapQuest Bing Google
 
Aerial photo
No photo
 
Sectional chart

 
Airport distance calculator
Flying to 1001 Fourth Avenue Plaza Heliport? Find the distance to fly.

From to WA54

Sunrise and sunset
Times for 25-Jul-2017
 Local
(UTC-7)
 Zulu
(UTC)
Morning civil twilight05:0212:02
Sunrise05:3912:39
Sunset20:5203:52
Evening civil twilight21:3004:30

Current date and time
Zulu (UTC)  25-Jul-2017 09:55:56
Local (UTC-7)  25-Jul-2017 02:55:56
 
METAR
KBFI 
3nm S 
250853Z 00000KT 10SM CLR 19/12 A2998 RMK AO2 SLP153 T01890122 50005
KRNT 
8nm SE 
250853Z AUTO 34003KT 10SM CLR 19/13 A2998 RMK AO2 SLP157 T01940133 50007
KSEA 
9nm S 
250853Z 35005KT 10SM CLR 18/11 A3000 RMK AO2 SLP162 T01780106 51005
KPWT 
18nm W 
250856Z AUTO 00000KT 10SM CLR 12/09 A3000 RMK AO2 SLP174 T01220094 51007
KPAE 
19nm N 
250853Z AUTO 34004KT 10SM CLR 16/10 A3001 RMK AO2 SLP159 T01610100 50003
TAF
KBFI 
3nm S 
250520Z 2506/2606 36004KT P6SM SKC FM251700 31004KT P6SM SKC
KSEA 
9nm S 
250520Z 2506/2612 01006KT P6SM SKC FM251900 32006KT P6SM SKC
KPAE 
19nm N 
250520Z 2506/2606 01004KT P6SM SKC FM251900 33008KT P6SM SKC
NOTAMs
Click for the latest NOTAMs
NOTAMs are issued by the DoD/FAA and will open in a separate window not controlled by AirNav.

 

 
 

Would you like to see your business listed on this page?

 If your business provides an interesting product or service to pilots, flight crews, aircraft, or users of the 1001 Fourth Avenue Plaza Heliport, you should consider listing it here.  To start the listing process, click on the button below
 
Add a business
 

Other Pages about 1001 Fourth Avenue Plaza Heliport

Update a link
 
Copyright © AirNav, LLC. All rights reserved. Privacy Policy  Contact